createdAt,value
2022-11-02T00:01:31.572Z,100722.00
2022-11-02T00:03:58.012Z,100710.56
2022-11-02T00:06:24.377Z,100715.91
2022-11-02T00:08:50.728Z,100712.41
2022-11-02T00:11:17.085Z,100720.06
2022-11-02T00:13:43.477Z,100717.38
2022-11-02T00:16:14.467Z,100716.38
2022-11-02T00:18:42.360Z,100715.63
2022-11-02T00:21:08.986Z,100708.66
2022-11-02T00:23:35.380Z,100709.41
2022-11-02T00:26:02.823Z,100707.94
2022-11-02T00:28:30.590Z,100707.13
2022-11-02T00:30:56.954Z,100708.00
2022-11-02T00:33:23.504Z,100709.72
2022-11-02T00:35:49.893Z,100714.97
2022-11-02T00:38:16.270Z,100706.25
2022-11-02T00:40:42.741Z,100699.22
2022-11-02T00:43:09.117Z,100707.31
2022-11-02T00:45:35.524Z,100708.06
2022-11-02T00:48:02.327Z,100705.44
2022-11-02T00:50:28.961Z,100706.41
2022-11-02T00:52:55.336Z,100708.03
2022-11-02T00:55:21.906Z,100707.19
2022-11-02T00:57:48.387Z,100706.44
2022-11-02T01:00:15.943Z,100705.53
2022-11-02T01:02:42.648Z,100700.22
2022-11-02T01:05:10.544Z,100708.06
2022-11-02T01:07:37.652Z,100712.44
2022-11-02T01:10:05.929Z,100712.22
2022-11-02T01:12:32.337Z,100713.09
2022-11-02T01:14:58.679Z,100717.66
2022-11-02T01:17:25.109Z,100719.44
2022-11-02T01:19:51.482Z,100730.97
2022-11-02T01:22:17.883Z,100715.97
2022-11-02T01:24:44.231Z,100717.72
2022-11-02T01:27:10.624Z,100725.78
2022-11-02T01:29:37.013Z,100719.75
2022-11-02T01:32:03.483Z,100709.28
2022-11-02T01:34:29.829Z,100706.50
2022-11-02T01:36:56.215Z,100704.66
2022-11-02T01:39:22.585Z,100702.13
2022-11-02T01:41:53.104Z,100702.75
2022-11-02T01:44:32.246Z,100695.06
2022-11-02T01:47:04.024Z,100696.63
2022-11-02T01:49:34.555Z,100689.78
2022-11-02T01:52:09.853Z,100692.41
2022-11-02T01:54:59.321Z,100689.78
2022-11-02T01:57:27.135Z,100693.94
2022-11-02T02:00:10.198Z,100691.41
2022-11-02T02:02:49.149Z,100688.91
2022-11-02T02:05:17.707Z,100685.28
2022-11-02T02:07:45.072Z,100690.66
2022-11-02T02:10:11.825Z,100683.63
2022-11-02T02:12:41.596Z,100688.03
2022-11-02T02:15:09.256Z,100680.09
2022-11-02T02:17:53.189Z,100680.06
2022-11-02T02:20:38.182Z,100668.63
2022-11-02T02:23:42.094Z,100663.34
2022-11-02T02:26:35.537Z,100667.38
2022-11-02T02:29:22.528Z,100671.97
2022-11-02T02:32:02.695Z,100670.97
2022-11-02T02:34:36.105Z,100667.44
2022-11-02T02:37:14.053Z,100669.16
2022-11-02T02:39:59.123Z,100676.19
2022-11-02T02:42:35.603Z,100674.09
2022-11-02T02:45:16.470Z,100674.25
2022-11-02T02:47:50.643Z,100673.19
2022-11-02T02:50:25.993Z,100681.16
2022-11-02T02:52:53.590Z,100687.53
2022-11-02T02:55:27.853Z,100683.38
2022-11-02T02:57:55.948Z,100679.81
2022-11-02T03:00:22.337Z,100687.53
2022-11-02T03:03:01.918Z,100679.72
2022-11-02T03:05:34.721Z,100675.56
2022-11-02T03:08:06.915Z,100672.09
2022-11-02T03:10:39.505Z,100669.41
2022-11-02T03:14:00.428Z,100673.00
2022-11-02T03:16:44.002Z,100661.38
2022-11-02T03:19:38.668Z,100674.38
2022-11-02T03:22:27.953Z,100668.34
2022-11-02T03:25:28.797Z,100673.50
2022-11-02T03:28:06.362Z,100688.50
2022-11-02T03:30:39.908Z,100684.78
2022-11-02T03:33:17.235Z,100676.78
2022-11-02T03:36:06.842Z,100678.50
2022-11-02T03:38:54.423Z,100688.66
2022-11-02T03:41:24.457Z,100695.94
2022-11-02T03:43:55.252Z,100692.31
2022-11-02T03:46:22.913Z,100692.44
2022-11-02T03:48:51.237Z,100692.34
2022-11-02T03:51:20.977Z,100700.50
2022-11-02T03:54:07.957Z,100698.59
2022-11-02T03:56:48.521Z,100709.19
2022-11-02T03:59:14.989Z,100714.38
2022-11-02T04:01:49.204Z,100712.59
2022-11-02T04:04:15.966Z,100715.94
2022-11-02T04:06:45.116Z,100716.81
2022-11-02T04:09:12.371Z,100718.84
2022-11-02T04:11:57.297Z,100734.66
2022-11-02T04:14:38.505Z,100731.28
2022-11-02T04:17:25.115Z,100731.97
2022-11-02T04:19:51.479Z,100723.94
2022-11-02T04:22:37.178Z,100717.25
2022-11-02T04:25:18.482Z,100717.75
2022-11-02T04:27:48.459Z,100721.44
2022-11-02T04:30:16.581Z,100728.44
2022-11-02T04:33:03.716Z,100728.78
2022-11-02T04:35:31.630Z,100727.78
2022-11-02T04:38:17.659Z,100735.03
2022-11-02T04:40:44.509Z,100731.59
2022-11-02T04:43:10.838Z,100738.78
2022-11-02T04:45:37.532Z,100741.56
2022-11-02T04:48:06.951Z,100746.88
2022-11-02T04:50:34.139Z,100748.66
2022-11-02T04:53:02.500Z,100751.97
2022-11-02T04:55:29.713Z,100754.22
2022-11-02T04:57:56.148Z,100746.44
2022-11-02T05:00:23.470Z,100740.50
2022-11-02T05:02:50.448Z,100752.78
2022-11-02T05:05:17.656Z,100750.97
2022-11-02T05:07:44.456Z,100747.50
2022-11-02T05:10:11.562Z,100754.53
2022-11-02T05:12:38.070Z,100752.84
2022-11-02T05:15:04.913Z,100760.88
2022-11-02T05:17:31.310Z,100760.16
2022-11-02T05:19:57.797Z,100761.97
2022-11-02T05:22:24.159Z,100769.75
2022-11-02T05:24:50.504Z,100774.13
2022-11-02T05:27:16.947Z,100779.84
2022-11-02T05:29:43.392Z,100782.53
2022-11-02T05:32:09.735Z,100782.88
2022-11-02T05:34:36.065Z,100779.41
2022-11-02T05:37:02.474Z,100789.72
2022-11-02T05:39:28.794Z,100784.53
2022-11-02T05:41:55.208Z,100787.19
2022-11-02T05:44:21.590Z,100793.25
2022-11-02T05:46:47.960Z,100797.75
2022-11-02T05:49:14.355Z,100800.28
2022-11-02T05:51:40.735Z,100804.63
2022-11-02T05:54:07.136Z,100807.28
2022-11-02T05:56:33.559Z,100815.38
2022-11-02T05:58:59.954Z,100813.38
2022-11-02T06:01:26.372Z,100812.47
2022-11-02T06:03:53.940Z,100803.66
2022-11-02T06:06:21.516Z,100814.06
2022-11-02T06:08:47.937Z,100807.91
2022-11-02T06:11:14.946Z,100818.38
2022-11-02T06:13:42.349Z,100808.78
2022-11-02T06:16:10.536Z,100819.50
2022-11-02T06:18:38.242Z,100818.50
2022-11-02T06:21:05.274Z,100814.06
2022-11-02T06:23:31.773Z,100821.03
2022-11-02T06:25:59.868Z,100828.97
2022-11-02T06:28:26.803Z,100832.50
2022-11-02T06:30:53.229Z,100828.19
2022-11-02T06:33:20.405Z,100833.56
2022-11-02T06:35:48.269Z,100837.16
2022-11-02T06:38:15.219Z,100847.75
2022-11-02T06:40:41.840Z,100849.53
2022-11-02T06:43:16.662Z,100852.25
2022-11-02T06:45:43.918Z,100857.38
2022-11-02T06:48:10.443Z,100860.97
2022-11-02T06:50:36.785Z,100859.94
2022-11-02T06:53:03.663Z,100857.38
2022-11-02T06:55:30.349Z,100866.22
2022-11-02T06:57:56.727Z,100870.56
2022-11-02T07:00:24.121Z,100866.09
2022-11-02T07:03:00.948Z,100872.19
2022-11-02T07:05:27.599Z,100879.13
2022-11-02T07:07:54.172Z,100882.47
2022-11-02T07:10:20.629Z,100890.19
2022-11-02T07:12:47.132Z,100894.38
2022-11-02T07:15:13.786Z,100895.88
2022-11-02T07:17:41.230Z,100906.38
2022-11-02T07:20:10.533Z,100904.47
2022-11-02T07:22:37.668Z,100910.09
2022-11-02T07:25:04.633Z,100914.41
2022-11-02T07:27:31.060Z,100919.47
2022-11-02T07:29:58.253Z,100916.50
2022-11-02T07:32:25.721Z,100909.97
2022-11-02T07:34:52.103Z,100924.00
2022-11-02T07:37:18.435Z,100921.88
2022-11-02T07:39:44.815Z,100925.28
2022-11-02T07:42:11.146Z,100936.44
2022-11-02T07:44:37.749Z,100931.84
2022-11-02T07:47:04.134Z,100931.75
2022-11-02T07:49:30.452Z,100936.03
2022-11-02T07:51:56.895Z,100946.97
2022-11-02T07:54:23.243Z,100947.63
2022-11-02T07:56:49.641Z,100947.59
2022-11-02T07:59:15.987Z,100951.75
2022-11-02T08:01:42.382Z,100947.00
2022-11-02T08:04:08.816Z,100954.72
2022-11-02T08:06:36.029Z,100952.66
2022-11-02T08:09:03.162Z,100952.75
2022-11-02T08:11:29.524Z,100957.28
2022-11-02T08:13:55.864Z,100968.22
2022-11-02T08:16:22.222Z,100966.47
2022-11-02T08:18:49.258Z,100969.00
2022-11-02T08:21:15.626Z,100957.84
2022-11-02T08:23:41.977Z,100950.13
2022-11-02T08:26:08.354Z,100966.09
2022-11-02T08:28:40.073Z,100972.16
2022-11-02T08:31:07.483Z,100967.75
2022-11-02T08:33:33.853Z,100969.19
2022-11-02T08:36:04.772Z,100963.34
2022-11-02T08:38:32.299Z,100964.59
2022-11-02T08:40:58.684Z,100963.28
2022-11-02T08:43:25.131Z,100968.69
2022-11-02T08:46:13.659Z,100972.31
2022-11-02T08:48:37.960Z,100965.19
2022-11-02T08:51:05.638Z,100963.50
2022-11-02T08:53:32.083Z,100974.91
2022-11-02T08:55:59.035Z,100967.31
2022-11-02T08:58:25.725Z,100976.28
2022-11-02T09:00:55.485Z,100968.38
2022-11-02T09:03:26.826Z,100983.63
2022-11-02T09:05:59.012Z,100977.59
2022-11-02T09:08:26.266Z,100968.16
2022-11-02T09:10:53.437Z,100976.81
2022-11-02T09:13:25.239Z,100974.47
2022-11-02T09:15:54.140Z,100973.53
2022-11-02T09:18:21.170Z,100977.06
2022-11-02T09:20:48.653Z,100975.94
2022-11-02T09:23:18.807Z,100971.06
2022-11-02T09:25:45.157Z,100969.97
2022-11-02T09:28:12.875Z,100957.09
2022-11-02T09:30:39.198Z,100959.47
2022-11-02T09:33:06.795Z,100965.78
2022-11-02T09:35:36.444Z,100972.94
2022-11-02T09:38:03.633Z,100972.88
2022-11-02T09:40:43.422Z,100978.09
2022-11-02T09:43:14.829Z,100980.34
2022-11-02T09:46:04.984Z,100978.38
2022-11-02T09:48:48.721Z,100977.28
2022-11-02T09:51:19.010Z,100976.94
2022-11-02T09:54:13.374Z,100986.19
2022-11-02T09:56:44.337Z,100981.19
2022-11-02T09:59:25.438Z,100979.91
2022-11-02T10:02:01.225Z,100985.97
2022-11-02T10:04:54.612Z,100989.16
2022-11-02T10:07:33.124Z,100993.22
2022-11-02T10:10:37.848Z,100997.19
2022-11-02T10:13:12.450Z,101001.88
2022-11-02T10:15:48.063Z,100994.66
2022-11-02T10:18:26.400Z,101004.16
2022-11-02T10:20:55.688Z,101011.25
2022-11-02T10:23:45.293Z,100996.91
2022-11-02T10:26:21.950Z,101005.78
2022-11-02T10:28:56.640Z,101013.41
2022-11-02T10:31:30.874Z,101006.66
2022-11-02T10:34:05.440Z,101005.44
2022-11-02T10:36:51.791Z,101012.44
2022-11-02T10:39:43.587Z,101003.56
2022-11-02T10:42:34.867Z,100999.38
2022-11-02T10:45:48.050Z,101006.03
2022-11-02T10:48:46.658Z,101007.66
2022-11-02T10:51:15.617Z,101009.84
2022-11-02T10:53:47.542Z,100999.00
2022-11-02T10:56:30.235Z,101011.31
2022-11-02T10:59:02.658Z,100992.34
2022-11-02T11:01:31.067Z,101004.63
2022-11-02T11:04:05.782Z,101002.16
2022-11-02T11:06:40.414Z,100989.31
2022-11-02T11:09:16.421Z,100988.59
2022-11-02T11:11:58.090Z,100988.97
2022-11-02T11:20:30.683Z,100986.34
2022-11-02T11:23:20.179Z,100993.91
2022-11-02T11:26:11.943Z,100979.44
2022-11-02T11:28:51.890Z,100987.88
2022-11-02T11:31:18.992Z,100983.09
2022-11-02T11:34:00.073Z,100987.22
2022-11-02T11:36:35.581Z,100983.34
2022-11-02T11:39:19.405Z,100980.91
2022-11-02T11:41:45.828Z,100976.34
2022-11-02T11:44:15.655Z,100968.09
2022-11-02T11:46:52.443Z,100969.75
2022-11-02T11:49:55.427Z,100962.97
2022-11-02T11:52:20.885Z,100973.84
2022-11-02T11:54:58.097Z,100963.47
2022-11-02T11:57:33.472Z,100967.81
2022-11-02T12:00:04.740Z,100963.69
2022-11-02T12:02:36.804Z,100970.25
2022-11-02T12:05:15.357Z,100975.81
2022-11-02T12:08:00.857Z,100973.47
2022-11-02T12:10:53.519Z,100973.69
2022-11-02T12:13:45.190Z,100965.06
2022-11-02T12:16:30.035Z,100966.28
2022-11-02T12:19:12.729Z,100972.94
2022-11-02T12:21:39.029Z,100960.88
2022-11-02T12:24:19.439Z,100946.75
2022-11-02T12:26:48.861Z,100944.13
2022-11-02T12:29:44.279Z,100950.03
2022-11-02T12:32:52.550Z,100959.56
2022-11-02T12:35:40.056Z,100959.44
2022-11-02T12:38:38.723Z,100958.19
2022-11-02T12:41:09.098Z,100949.91
2022-11-02T12:43:38.700Z,100950.47
2022-11-02T12:46:23.882Z,100949.84
2022-11-02T12:49:14.779Z,100955.78
2022-11-02T12:51:50.336Z,100944.59
2022-11-02T12:54:21.748Z,100944.16
2022-11-02T12:56:53.536Z,100946.50
2022-11-02T12:59:29.637Z,100935.81
2022-11-02T13:02:13.383Z,100942.72
2022-11-02T13:04:50.831Z,100949.03
2022-11-02T13:07:26.142Z,100934.81
2022-11-02T13:10:13.906Z,100938.28
2022-11-02T13:12:44.302Z,100928.81
2022-11-02T13:15:21.260Z,100931.38
2022-11-02T13:17:56.268Z,100917.50
2022-11-02T13:20:35.917Z,100916.47
2022-11-02T13:23:07.801Z,100928.88
2022-11-02T13:25:39.144Z,100923.50
2022-11-02T13:28:13.423Z,100929.44
2022-11-02T13:30:41.213Z,100937.97
2022-11-02T13:33:20.459Z,100925.50
2022-11-02T13:35:47.231Z,100918.47
2022-11-02T13:38:28.861Z,100918.94
2022-11-02T13:41:10.452Z,100920.13
2022-11-02T13:44:01.180Z,100901.69
2022-11-02T13:46:56.007Z,100909.69
2022-11-02T13:49:28.918Z,100903.63
2022-11-02T13:52:04.982Z,100906.91
2022-11-02T13:54:40.987Z,100915.78
2022-11-02T13:57:35.180Z,100913.44
2022-11-02T14:00:05.767Z,100906.81
2022-11-02T14:02:41.422Z,100914.03
2022-11-02T14:05:08.471Z,100916.53
2022-11-02T14:07:40.224Z,100910.06
2022-11-02T14:10:27.502Z,100919.94
2022-11-02T14:12:54.059Z,100915.16
2022-11-02T14:15:20.353Z,100915.50
2022-11-02T14:17:52.645Z,100907.88
2022-11-02T14:20:35.846Z,100907.81
2022-11-02T14:23:11.440Z,100902.06
2022-11-02T14:25:52.332Z,100911.53
2022-11-02T14:28:21.696Z,100908.47
2022-11-02T14:30:53.768Z,100911.38
2022-11-02T14:33:29.212Z,100904.38
2022-11-02T14:36:10.135Z,100905.34
2022-11-02T14:42:05.948Z,100894.34
2022-11-02T14:45:08.934Z,100902.97
2022-11-02T14:47:38.599Z,100903.31
2022-11-02T14:50:10.609Z,100902.66
2022-11-02T14:52:37.148Z,100900.25
2022-11-02T14:55:20.411Z,100898.91
2022-11-02T14:58:15.867Z,100898.09
2022-11-02T15:00:48.391Z,100899.78
2022-11-02T15:03:32.251Z,100894.75
2022-11-02T15:06:10.577Z,100890.03
2022-11-02T15:08:42.936Z,100897.06
2022-11-02T15:11:45.082Z,100897.91
2022-11-02T15:14:36.265Z,100887.03
2022-11-02T15:17:26.137Z,100889.63
2022-11-02T15:19:58.768Z,100887.81
2022-11-02T15:22:31.150Z,100885.53
2022-11-02T15:25:21.020Z,100895.97
2022-11-02T15:27:48.941Z,100886.13
2022-11-02T15:30:23.886Z,100894.31
2022-11-02T15:33:02.390Z,100892.69
2022-11-02T15:35:36.845Z,100893.16
2022-11-02T15:38:28.065Z,100881.00
2022-11-02T15:41:06.458Z,100884.47
2022-11-02T15:43:35.879Z,100880.28
2022-11-02T15:46:09.245Z,100879.50
2022-11-02T15:49:00.883Z,100880.56
2022-11-02T15:52:05.066Z,100881.22
2022-11-02T15:55:01.691Z,100874.13
2022-11-02T15:57:40.146Z,100867.56
2022-11-02T16:00:17.959Z,100866.34
2022-11-02T16:02:52.691Z,100872.22
2022-11-02T16:05:23.785Z,100867.31
2022-11-02T16:10:39.095Z,100859.03
2022-11-02T16:13:16.926Z,100852.41
2022-11-02T16:15:44.634Z,100857.09
2022-11-02T16:18:41.211Z,100858.38
2022-11-02T16:21:12.851Z,100858.13
2022-11-02T16:23:41.823Z,100861.63
2022-11-02T16:26:19.479Z,100858.69
2022-11-02T16:28:52.522Z,100855.00
2022-11-02T16:31:31.055Z,100858.19
2022-11-02T16:33:58.909Z,100857.72
2022-11-02T16:36:36.384Z,100854.59
2022-11-02T16:39:16.588Z,100843.84
2022-11-02T16:41:49.083Z,100840.53
2022-11-02T16:44:31.442Z,100838.63
2022-11-02T16:47:18.010Z,100840.66
2022-11-02T16:49:50.762Z,100848.19
2022-11-02T16:52:18.706Z,100848.00
2022-11-02T16:54:45.118Z,100845.44
2022-11-02T16:57:12.127Z,100847.06
2022-11-02T16:59:50.242Z,100843.47
2022-11-02T17:02:17.348Z,100837.09
2022-11-02T17:04:46.786Z,100847.84
2022-11-02T17:07:16.718Z,100844.97
2022-11-02T17:09:43.354Z,100846.00
2022-11-02T17:12:15.159Z,100848.34
2022-11-02T17:14:44.650Z,100843.25
2022-11-02T17:17:22.993Z,100850.94
2022-11-02T17:20:01.447Z,100848.06
2022-11-02T17:22:29.148Z,100842.66
2022-11-02T17:25:13.812Z,100838.66
2022-11-02T17:27:42.505Z,100843.44
2022-11-02T17:30:35.014Z,100848.31
2022-11-02T17:33:09.054Z,100851.53
2022-11-02T17:35:35.589Z,100867.81
2022-11-02T17:38:02.896Z,100866.91
2022-11-02T17:40:29.485Z,100858.84
2022-11-02T17:42:59.022Z,100849.06
2022-11-02T17:45:31.339Z,100849.06
2022-11-02T17:47:59.367Z,100850.16
2022-11-02T17:50:27.770Z,100846.78
2022-11-02T17:52:55.075Z,100849.59
2022-11-02T17:55:27.614Z,100846.72
2022-11-02T17:57:54.952Z,100852.78
2022-11-02T18:00:23.150Z,100850.44
2022-11-02T18:02:51.792Z,100850.41
2022-11-02T18:05:29.277Z,100852.91
2022-11-02T18:07:57.818Z,100855.47
2022-11-02T18:10:27.426Z,100849.34
2022-11-02T18:12:53.754Z,100852.19
2022-11-02T18:15:23.356Z,100850.50
2022-11-02T18:17:49.915Z,100858.69
2022-11-02T18:20:16.918Z,100864.22
2022-11-02T18:22:43.519Z,100852.53
2022-11-02T18:25:12.701Z,100848.84
2022-11-02T18:27:39.908Z,100846.44
2022-11-02T18:30:08.267Z,100837.38
2022-11-02T18:32:42.496Z,100839.13
2022-11-02T18:35:12.004Z,100820.59
2022-11-02T18:37:38.933Z,100824.09
2022-11-02T18:40:07.066Z,100818.84
2022-11-02T18:42:36.411Z,100827.84
2022-11-02T18:45:03.037Z,100820.75
2022-11-02T18:47:29.363Z,100816.69
2022-11-02T18:49:55.760Z,100809.16
2022-11-02T18:52:22.603Z,100811.91
2022-11-02T18:54:49.147Z,100823.34
2022-11-02T18:57:15.614Z,100826.91
2022-11-02T18:59:42.076Z,100829.06
2022-11-02T19:02:10.329Z,100825.16
2022-11-02T19:04:36.965Z,100810.75
2022-11-02T19:07:22.265Z,100820.47
2022-11-02T19:09:48.624Z,100815.31
2022-11-02T19:12:21.836Z,100811.28
2022-11-02T19:14:51.379Z,100808.38
2022-11-02T19:17:18.212Z,100821.16
2022-11-02T19:19:46.481Z,100818.63
2022-11-02T19:22:13.490Z,100811.00
2022-11-02T19:24:39.995Z,100806.84
2022-11-02T19:27:06.967Z,100799.81
2022-11-02T19:29:33.977Z,100795.44
2022-11-02T19:32:00.413Z,100799.09
2022-11-02T19:34:26.813Z,100796.47
2022-11-02T19:36:53.794Z,100793.91
2022-11-02T19:39:20.119Z,100792.13
2022-11-02T19:41:49.522Z,100786.75
2022-11-02T19:44:15.923Z,100784.88
2022-11-02T19:49:09.596Z,100789.16
2022-11-02T19:51:36.007Z,100795.63
2022-11-02T19:54:02.956Z,100791.13
2022-11-02T19:56:31.993Z,100790.53
2022-11-02T19:58:58.817Z,100795.03
2022-11-02T20:01:27.888Z,100784.47
2022-11-02T20:03:55.190Z,100789.81
2022-11-02T20:06:24.516Z,100787.16
2022-11-02T20:08:52.322Z,100792.53
2022-11-02T20:11:19.353Z,100786.50
2022-11-02T20:13:47.036Z,100784.75
2022-11-02T20:16:15.979Z,100789.03
2022-11-02T20:18:44.342Z,100785.53
2022-11-02T20:21:31.060Z,100772.50
2022-11-02T20:23:58.760Z,100783.97
2022-11-02T20:26:35.852Z,100777.72
2022-11-02T20:29:03.996Z,100775.94
2022-11-02T20:31:33.469Z,100780.31
2022-11-02T20:34:00.913Z,100774.16
2022-11-02T20:36:27.946Z,100775.91
2022-11-02T20:38:54.785Z,100783.91
2022-11-02T20:41:23.742Z,100782.19
2022-11-02T20:43:51.834Z,100777.69
2022-11-02T20:46:38.321Z,100779.41
2022-11-02T20:49:20.156Z,100771.53
2022-11-02T20:51:50.276Z,100771.41
2022-11-02T20:54:18.315Z,100776.63
2022-11-02T20:56:44.818Z,100781.84
2022-11-02T20:59:11.265Z,100774.69
2022-11-02T21:01:37.801Z,100766.75
2022-11-02T21:04:04.422Z,100764.19
2022-11-02T21:06:30.766Z,100766.16
2022-11-02T21:08:59.353Z,100764.31
2022-11-02T21:11:44.870Z,100751.16
2022-11-02T21:14:11.195Z,100753.72
2022-11-02T21:16:37.524Z,100754.53
2022-11-02T21:19:03.898Z,100756.28
2022-11-02T21:21:30.295Z,100749.97
2022-11-02T21:23:56.670Z,100742.88
2022-11-02T21:26:23.101Z,100744.59
2022-11-02T21:28:49.490Z,100745.34
2022-11-02T21:31:21.344Z,100752.38
2022-11-02T21:33:49.500Z,100746.06
2022-11-02T21:36:17.391Z,100747.16
2022-11-02T21:38:46.934Z,100752.94
2022-11-02T21:41:20.086Z,100748.56
2022-11-02T21:43:46.775Z,100757.28
2022-11-02T21:46:13.533Z,100749.41
2022-11-02T21:48:40.010Z,100741.47
2022-11-02T21:51:14.386Z,100743.22
2022-11-02T21:53:42.863Z,100733.53
2022-11-02T21:56:18.132Z,100750.25
2022-11-02T21:58:46.487Z,100735.00
2022-11-02T22:01:34.491Z,100732.50
2022-11-02T22:04:01.275Z,100722.94
2022-11-02T22:06:31.288Z,100727.53
2022-11-02T22:08:58.945Z,100718.47
2022-11-02T22:11:28.226Z,100719.09
2022-11-02T22:13:56.548Z,100715.88
2022-11-02T22:16:27.916Z,100714.28
2022-11-02T22:18:56.673Z,100713.44
2022-11-02T22:21:26.429Z,100714.41
2022-11-02T22:23:52.994Z,100715.28
2022-11-02T22:26:21.923Z,100706.34
2022-11-02T22:28:48.858Z,100707.34
2022-11-02T22:31:19.396Z,100703.03
2022-11-02T22:33:47.641Z,100696.22
2022-11-02T22:36:16.773Z,100696.06
2022-11-02T22:38:53.574Z,100690.94
2022-11-02T22:41:30.684Z,100685.75
2022-11-02T22:44:12.373Z,100697.34
2022-11-02T22:46:40.884Z,100692.78
2022-11-02T22:49:08.856Z,100685.91
2022-11-02T22:51:41.087Z,100687.63
2022-11-02T22:54:09.947Z,100682.53
2022-11-02T22:56:36.500Z,100676.31
2022-11-02T22:59:04.133Z,100673.72
2022-11-02T23:01:31.505Z,100670.25
2022-11-02T23:03:58.547Z,100664.09
2022-11-02T23:06:25.924Z,100664.22
2022-11-02T23:08:54.532Z,100665.16
2022-11-02T23:11:27.629Z,100668.78
2022-11-02T23:14:12.414Z,100671.38
2022-11-02T23:16:44.097Z,100664.25
2022-11-02T23:19:31.325Z,100666.03
2022-11-02T23:22:29.741Z,100659.06
2022-11-02T23:25:16.998Z,100668.81
2022-11-02T23:28:03.318Z,100667.06
2022-11-02T23:30:54.113Z,100660.09
2022-11-02T23:33:22.293Z,100663.63
2022-11-02T23:36:07.199Z,100670.66
2022-11-02T23:38:52.167Z,100662.72
2022-11-02T23:41:19.896Z,100666.25
2022-11-02T23:43:47.431Z,100658.34
2022-11-02T23:46:14.211Z,100655.59
2022-11-02T23:48:47.021Z,100651.25
2022-11-02T23:51:34.799Z,100652.25
2022-11-02T23:54:19.643Z,100648.56
2022-11-02T23:56:46.177Z,100641.59
2022-11-02T23:59:17.747Z,100637.19
